Time;durP1;ratioP1;P1;durP2;ratioP2;P2;SDS_P1;SDS_P2;PMS_P1;PMS_P2;Temp;Humidity;BMP_temperature;BMP_pressure;BME280_temperature;BME280_humidity;BME280_pressure;Samples;Min_cycle;Max_cycle;Signal;HPM_P1;HPM_P2
2020/12/18 00:00:13;;;;;;;26.10;16.70;;;;;;;6.90;100.00;100179.13;5034790;28;20225;-68
2020/12/18 00:02:39;;;;;;;25.25;15.98;;;;;;;7.04;100.00;100173.31;5035301;28;20273;-69
2020/12/18 00:05:06;;;;;;;21.17;16.33;;;;;;;6.97;100.00;100174.44;5034932;28;20288;-69
2020/12/18 00:07:32;;;;;;;25.17;15.82;;;;;;;6.84;100.00;100179.34;5034708;28;20218;-69
2020/12/18 00:09:59;;;;;;;20.65;16.70;;;;;;;6.68;100.00;100178.97;5034837;28;20233;-69
2020/12/18 00:12:25;;;;;;;24.50;16.40;;;;;;;6.66;100.00;100165.63;5034348;28;20201;-68
2020/12/18 00:14:52;;;;;;;23.00;17.33;;;;;;;6.59;100.00;100166.75;5034769;28;20221;-69
2020/12/18 00:17:18;;;;;;;19.92;16.17;;;;;;;6.52;100.00;100170.56;5034942;28;20202;-68
2020/12/18 00:19:44;;;;;;;22.88;16.02;;;;;;;6.42;100.00;100183.38;5033517;28;20285;-69
2020/12/18 00:22:10;;;;;;;23.85;18.10;;;;;;;6.47;100.00;100177.88;5034914;28;20206;-69
2020/12/18 00:24:36;;;;;;;24.52;17.17;;;;;;;6.48;100.00;100177.81;5034653;28;20189;-69
2020/12/18 00:27:03;;;;;;;25.98;18.42;;;;;;;6.57;100.00;100183.78;5034531;28;20186;-69
2020/12/18 00:29:30;;;;;;;24.65;17.70;;;;;;;6.57;100.00;100186.47;5034660;28;20201;-69
2020/12/18 00:31:56;;;;;;;21.48;18.30;;;;;;;6.60;100.00;100186.34;5034742;28;20206;-68
2020/12/18 00:34:23;;;;;;;23.35;17.35;;;;;;;6.70;100.00;100186.97;5034949;28;20275;-68
2020/12/18 00:36:52;;;;;;;26.85;18.10;;;;;;;6.70;100.00;100189.63;5035023;28;20198;-70
2020/12/18 00:39:19;;;;;;;28.10;19.30;;;;;;;6.65;100.00;100184.44;5034803;28;20561;-69
2020/12/18 00:41:50;;;;;;;31.25;19.55;;;;;;;6.62;100.00;100184.50;5034424;28;20210;-68
2020/12/18 00:44:18;;;;;;;33.47;19.08;;;;;;;6.67;100.00;100187.91;5034402;28;20230;-69
2020/12/18 00:46:44;;;;;;;31.05;20.40;;;;;;;6.57;100.00;100194.50;5034405;28;20202;-68
2020/12/18 00:49:10;;;;;;;28.83;19.17;;;;;;;6.55;100.00;100191.00;5034527;28;20577;-69
2020/12/18 00:51:36;;;;;;;28.83;19.77;;;;;;;6.47;100.00;100189.44;5034313;28;20653;-69
2020/12/18 00:54:02;;;;;;;28.38;19.63;;;;;;;6.47;100.00;100181.41;5034387;28;20676;-69
2020/12/18 00:56:28;;;;;;;30.85;20.00;;;;;;;6.48;100.00;100185.81;5033738;28;20202;-68
2020/12/18 00:58:54;;;;;;;29.10;19.77;;;;;;;6.48;100.00;100183.16;5033783;28;20225;-68
2020/12/18 01:01:21;;;;;;;27.55;19.80;;;;;;;6.55;100.00;100185.63;5034468;28;20644;-69
2020/12/18 01:03:48;;;;;;;28.15;19.50;;;;;;;6.50;100.00;100175.09;5034431;28;20273;-69
2020/12/18 01:06:15;;;;;;;29.42;20.98;;;;;;;6.52;100.00;100178.59;5033842;28;20304;-68
2020/12/18 01:08:41;;;;;;;30.00;19.15;;;;;;;6.53;100.00;100182.13;5034338;28;20320;-69
2020/12/18 01:11:08;;;;;;;29.65;18.65;;;;;;;6.54;100.00;100189.25;5033804;28;20336;-69
2020/12/18 01:13:34;;;;;;;31.58;17.30;;;;;;;6.63;100.00;100181.78;5033696;28;21009;-70
2020/12/18 01:16:01;;;;;;;25.10;17.23;;;;;;;6.74;100.00;100193.94;5033790;28;20351;-69
2020/12/18 01:18:28;;;;;;;25.45;17.23;;;;;;;6.80;100.00;100186.56;5033530;28;20210;-68
2020/12/18 01:20:59;;;;;;;25.67;16.83;;;;;;;6.89;100.00;100190.75;5034054;28;20182;-69
2020/12/18 01:23:25;;;;;;;23.80;16.73;;;;;;;6.93;100.00;100194.22;5033643;28;20281;-69
2020/12/18 01:25:51;;;;;;;22.90;15.65;;;;;;;7.13;100.00;100180.16;5033764;28;20233;-69
2020/12/18 01:28:17;;;;;;;22.38;15.93;;;;;;;7.23;100.00;100182.44;5033916;28;20703;-69
2020/12/18 01:30:43;;;;;;;30.20;15.55;;;;;;;7.44;100.00;100186.19;5033846;28;21055;-68
2020/12/18 01:33:09;;;;;;;27.83;15.05;;;;;;;7.32;100.00;100187.47;5033851;28;20278;-69
2020/12/18 01:35:36;;;;;;;18.70;14.05;;;;;;;7.31;100.00;100177.69;5033637;28;20284;-68
2020/12/18 01:38:02;;;;;;;18.98;14.70;;;;;;;7.04;100.00;100186.69;5033508;28;20297;-69
2020/12/18 01:40:29;;;;;;;24.70;16.60;;;;;;;7.08;100.00;100189.22;5032850;28;20190;-68
2020/12/18 01:42:55;;;;;;;22.42;16.38;;;;;;;7.16;100.00;100191.63;5033025;28;20208;-68
2020/12/18 01:45:21;;;;;;;20.38;15.50;;;;;;;7.31;100.00;100191.09;5032485;28;20289;-68
2020/12/18 01:47:47;;;;;;;22.55;14.02;;;;;;;7.34;100.00;100198.13;5033245;28;20367;-68
2020/12/18 01:50:13;;;;;;;19.88;14.23;;;;;;;7.56;100.00;100197.38;5033303;28;20233;-69
2020/12/18 01:52:41;;;;;;;18.33;14.30;;;;;;;7.52;100.00;100193.94;5032872;28;20190;-69
2020/12/18 01:55:08;;;;;;;18.42;12.85;;;;;;;7.43;100.00;100196.94;5033148;28;20206;-69
2020/12/18 01:57:37;;;;;;;18.92;15.70;;;;;;;7.36;100.00;100198.09;5033427;28;20666;-69
2020/12/18 02:00:06;;;;;;;16.52;11.82;;;;;;;7.30;100.00;100201.84;5032584;28;20302;-70
2020/12/18 02:02:32;;;;;;;19.55;13.80;;;;;;;7.32;100.00;100198.19;5033016;28;20186;-69
2020/12/18 02:04:58;;;;;;;17.38;13.77;;;;;;;7.30;100.00;100201.84;5032159;28;20190;-69
2020/12/18 02:07:28;;;;;;;15.88;10.95;;;;;;;7.34;100.00;100194.59;5032495;28;20404;-69
2020/12/18 02:09:56;;;;;;;18.13;11.60;;;;;;;7.38;100.00;100191.75;5032925;28;20269;-68
2020/12/18 02:12:22;;;;;;;21.75;11.30;;;;;;;7.43;100.00;100188.91;5032642;28;20293;-68
2020/12/18 02:14:49;;;;;;;14.27;9.00;;;;;;;7.43;99.80;100195.13;5032400;28;20230;-68
2020/12/18 02:17:16;;;;;;;17.00;11.20;;;;;;;7.35;99.07;100188.28;5032132;28;20387;-68
2020/12/18 02:19:44;;;;;;;18.85;8.30;;;;;;;7.41;98.17;100185.41;5032015;28;20197;-68
2020/12/18 02:22:12;;;;;;;14.15;9.85;;;;;;;7.24;97.75;100186.00;5032400;28;20324;-69
2020/12/18 02:24:41;;;;;;;15.80;8.95;;;;;;;7.12;98.39;100175.72;5032345;28;20190;-68
2020/12/18 02:27:10;;;;;;;11.70;7.85;;;;;;;7.13;98.09;100177.47;5032605;28;20644;-69
2020/12/18 02:29:36;;;;;;;8.27;6.20;;;;;;;6.99;98.67;100178.81;5032143;28;20273;-68
2020/12/18 02:32:02;;;;;;;9.77;7.13;;;;;;;6.89;99.81;100180.91;5032092;28;20275;-69
2020/12/18 02:34:29;;;;;;;8.80;6.50;;;;;;;6.71;100.00;100186.88;5032243;28;20216;-68
2020/12/18 02:36:55;;;;;;;11.73;6.97;;;;;;;6.80;100.00;100186.56;5032485;28;20186;-68
2020/12/18 02:39:21;;;;;;;7.68;4.88;;;;;;;6.67;100.00;100186.13;5032188;28;20213;-68
2020/12/18 02:41:47;;;;;;;10.15;6.55;;;;;;;6.61;100.00;100185.44;5032436;28;20186;-69
2020/12/18 02:44:14;;;;;;;8.80;5.68;;;;;;;6.57;100.00;100181.97;5031346;28;20189;-68
2020/12/18 02:46:40;;;;;;;10.25;6.97;;;;;;;6.51;100.00;100183.97;5031307;28;20302;-68
2020/12/18 02:49:06;;;;;;;8.15;5.97;;;;;;;6.56;100.00;100179.38;5032373;28;20208;-68
2020/12/18 02:51:33;;;;;;;12.25;7.05;;;;;;;6.68;100.00;100181.66;5031862;28;20301;-69
2020/12/18 02:53:59;;;;;;;10.32;6.70;;;;;;;6.57;100.00;100173.97;5032364;28;20198;-69
2020/12/18 02:56:27;;;;;;;12.93;7.32;;;;;;;6.45;100.00;100177.03;5032139;28;20680;-68
2020/12/18 02:58:53;;;;;;;13.73;6.30;;;;;;;6.35;100.00;100173.75;5031715;28;20233;-68
2020/12/18 03:01:21;;;;;;;10.27;6.75;;;;;;;6.29;100.00;100178.44;5031636;28;20182;-69
2020/12/18 03:03:47;;;;;;;9.48;6.15;;;;;;;6.30;100.00;100173.03;5031902;28;20287;-68
2020/12/18 03:06:14;;;;;;;11.73;7.68;;;;;;;6.30;100.00;100170.38;5031779;28;20233;-68
2020/12/18 03:08:40;;;;;;;12.55;7.47;;;;;;;6.29;100.00;100171.31;5031952;28;20263;-68
2020/12/18 03:11:07;;;;;;;14.02;7.90;;;;;;;6.33;100.00;100172.97;5031458;28;20198;-69
2020/12/18 03:13:33;;;;;;;8.82;7.20;;;;;;;6.33;100.00;100183.66;5032136;28;20285;-69
2020/12/18 03:15:59;;;;;;;11.18;7.43;;;;;;;6.38;100.00;100178.16;5031758;28;20691;-68
2020/12/18 03:18:26;;;;;;;15.40;7.32;;;;;;;6.40;100.00;100178.97;5031993;28;20186;-68
2020/12/18 03:20:52;;;;;;;11.88;6.93;;;;;;;6.43;100.00;100184.25;5031672;28;20204;-69
2020/12/18 03:23:18;;;;;;;14.20;7.18;;;;;;;6.46;100.00;100184.13;5031754;28;20549;-69
2020/12/18 03:25:44;;;;;;;9.65;6.00;;;;;;;6.51;100.00;100183.97;5031939;28;20674;-69
2020/12/18 03:28:11;;;;;;;11.30;7.35;;;;;;;6.47;100.00;100180.56;5031958;28;20290;-69
2020/12/18 03:30:37;;;;;;;10.90;6.10;;;;;;;6.39;100.00;100171.88;5035126;28;20218;-68
2020/12/18 03:33:03;;;;;;;12.80;7.07;;;;;;;6.29;100.00;100176.66;5035883;28;20244;-68
2020/12/18 03:35:30;;;;;;;12.65;6.53;;;;;;;6.31;100.00;100171.25;5035747;28;20616;-69
2020/12/18 03:37:56;;;;;;;8.73;6.40;;;;;;;6.19;100.00;100169.81;5035187;28;20190;-69
2020/12/18 03:40:23;;;;;;;16.92;7.65;;;;;;;6.15;100.00;100173.50;5035882;28;20281;-68
2020/12/18 03:42:49;;;;;;;9.68;6.07;;;;;;;6.30;100.00;100178.41;5035693;28;20288;-68
2020/12/18 03:45:15;;;;;;;17.02;7.93;;;;;;;6.32;100.00;100173.88;5035218;28;20273;-69
2020/12/18 03:47:41;;;;;;;10.48;6.78;;;;;;;6.39;100.00;100174.56;5034912;28;20222;-68
2020/12/18 03:50:07;;;;;;;10.55;6.28;;;;;;;6.34;100.00;100176.50;5035342;28;20229;-68
2020/12/18 03:52:35;;;;;;;10.00;6.18;;;;;;;6.41;100.00;100181.59;5035373;28;20756;-68
2020/12/18 03:55:01;;;;;;;12.88;6.38;;;;;;;6.51;100.00;100175.97;5035095;28;20277;-69
2020/12/18 03:57:27;;;;;;;9.25;6.30;;;;;;;6.50;100.00;100171.53;5035438;28;20202;-68
2020/12/18 03:59:53;;;;;;;12.98;6.60;;;;;;;6.62;100.00;100172.00;5034905;28;20324;-68
2020/12/18 04:02:19;;;;;;;14.48;8.48;;;;;;;6.61;100.00;100172.06;5035356;28;20273;-68
2020/12/18 04:04:45;;;;;;;10.45;6.35;;;;;;;6.51;100.00;100162.56;5035122;28;20201;-68
2020/12/18 04:07:13;;;;;;;12.20;6.40;;;;;;;6.31;100.00;100161.44;5034868;28;20655;-68
2020/12/18 04:09:41;;;;;;;9.20;6.75;;;;;;;6.45;100.00;100161.84;5034988;28;20237;-68
2020/12/18 04:12:07;;;;;;;11.93;6.85;;;;;;;6.37;100.00;100161.22;5034705;28;20217;-68
2020/12/18 04:14:33;;;;;;;13.77;7.78;;;;;;;6.40;100.00;100161.16;5035125;28;20214;-68
2020/12/18 04:17:01;;;;;;;12.52;7.47;;;;;;;6.49;100.00;100165.31;5035107;28;20186;-68
2020/12/18 04:19:27;;;;;;;13.52;6.75;;;;;;;6.43;100.00;100160.16;5034559;28;20285;-68
2020/12/18 04:21:53;;;;;;;10.30;6.03;;;;;;;6.55;100.00;100165.09;5034972;28;20237;-68
2020/12/18 04:24:20;;;;;;;15.60;7.53;;;;;;;6.61;100.00;100167.59;5035439;28;20329;-70
2020/12/18 04:26:47;;;;;;;11.63;7.18;;;;;;;6.61;100.00;100164.91;5034938;28;20206;-68
2020/12/18 04:29:13;;;;;;;11.15;6.90;;;;;;;6.48;100.00;100168.91;5034984;28;20981;-68
2020/12/18 04:31:39;;;;;;;7.18;6.45;;;;;;;6.45;100.00;100152.97;5034163;28;20226;-68
2020/12/18 04:34:05;;;;;;;13.20;7.10;;;;;;;6.38;100.00;100154.97;5034740;28;20295;-69
2020/12/18 04:36:31;;;;;;;11.23;7.80;;;;;;;6.36;100.00;100156.81;5034663;28;20554;-69
2020/12/18 04:38:57;;;;;;;12.25;5.38;;;;;;;6.31;100.00;100156.09;5033970;28;20626;-68
2020/12/18 04:41:25;;;;;;;13.35;6.38;;;;;;;6.29;100.00;100162.38;5033694;28;20664;-68
2020/12/18 04:43:52;;;;;;;12.27;6.18;;;;;;;6.29;100.00;100155.25;5034468;28;20206;-69
2020/12/18 04:46:21;;;;;;;11.50;6.85;;;;;;;6.21;100.00;100158.16;5034067;28;20659;-69
2020/12/18 04:48:47;;;;;;;11.60;6.15;;;;;;;6.12;100.00;100152.22;5034355;28;20198;-69
2020/12/18 04:51:18;;;;;;;12.18;5.70;;;;;;;6.09;100.00;100158.56;5034171;28;20256;-68
2020/12/18 04:53:48;;;;;;;15.32;7.45;;;;;;;6.28;100.00;100150.81;5034478;28;20649;-68
2020/12/18 04:56:17;;;;;;;8.80;5.80;;;;;;;6.16;100.00;100157.44;5034122;28;20198;-69
2020/12/18 04:58:44;;;;;;;13.70;6.35;;;;;;;5.80;100.00;100151.38;5034223;28;20230;-68
2020/12/18 05:01:12;;;;;;;15.88;6.60;;;;;;;5.96;100.00;100158.03;5033795;28;20178;-69
2020/12/18 05:03:39;;;;;;;15.85;7.00;;;;;;;5.93;100.00;100152.75;5033704;28;20251;-68
2020/12/18 05:06:06;;;;;;;12.48;6.00;;;;;;;5.88;100.00;100154.72;5033687;28;20182;-68
2020/12/18 05:08:32;;;;;;;9.55;6.25;;;;;;;5.85;100.00;100154.78;5033273;28;20194;-69
2020/12/18 05:10:58;;;;;;;11.23;5.22;;;;;;;5.81;100.00;100142.44;5033547;28;20210;-69
2020/12/18 05:13:25;;;;;;;11.23;5.80;;;;;;;5.67;100.00;100144.63;5033889;28;20206;-69
2020/12/18 05:15:51;;;;;;;9.07;6.25;;;;;;;5.82;100.00;100149.53;5033378;28;20209;-69
2020/12/18 05:18:21;;;;;;;12.88;6.00;;;;;;;5.83;100.00;100157.53;5033704;28;20182;-68
2020/12/18 05:20:48;;;;;;;12.30;5.20;;;;;;;5.74;100.00;100152.41;5033806;28;20613;-69
2020/12/18 05:23:14;;;;;;;12.38;6.07;;;;;;;5.62;100.00;100158.13;5033311;28;20221;-67
2020/12/18 05:25:40;;;;;;;11.05;6.80;;;;;;;5.57;100.00;100160.94;5033745;28;20672;-68
2020/12/18 05:28:06;;;;;;;13.00;6.35;;;;;;;5.46;100.00;100155.03;5033415;28;20186;-69
2020/12/18 05:30:33;;;;;;;10.40;5.68;;;;;;;5.53;100.00;100153.06;5033434;28;20190;-68
2020/12/18 05:33:00;;;;;;;8.13;5.70;;;;;;;5.37;100.00;100153.47;5034101;28;20209;-68
2020/12/18 05:35:30;;;;;;;12.13;6.28;;;;;;;5.49;100.00;100154.06;5033488;28;20645;-68
2020/12/18 05:37:57;;;;;;;11.40;6.25;;;;;;;5.50;100.00;100156.69;5033059;28;20183;-69
2020/12/18 05:40:25;;;;;;;11.60;6.18;;;;;;;5.45;100.00;100155.97;5033401;28;20613;-69
2020/12/18 05:42:51;;;;;;;12.68;6.40;;;;;;;5.38;100.00;100157.94;5032992;28;20201;-69
2020/12/18 05:45:19;;;;;;;9.82;5.53;;;;;;;5.31;100.00;100158.97;5033408;28;20186;-69
2020/12/18 05:48:03;;;;;;;10.32;5.25;;;;;;;5.24;100.00;100157.41;5033087;28;20210;-68
2020/12/18 05:50:32;;;;;;;9.93;4.60;;;;;;;5.22;100.00;100153.91;5033165;28;20240;-68
2020/12/18 05:52:59;;;;;;;16.73;5.18;;;;;;;5.25;100.00;100160.97;5032649;28;20276;-68
2020/12/18 05:55:27;;;;;;;13.77;6.78;;;;;;;5.38;100.00;100162.38;5033093;28;20198;-69
2020/12/18 05:57:54;;;;;;;7.30;3.80;;;;;;;5.23;100.00;100164.56;5032892;28;20205;-68
2020/12/18 06:00:22;;;;;;;22.38;11.63;;;;;;;5.03;100.00;100161.53;5032478;28;20233;-69
2020/12/18 06:02:55;;;;;;;14.05;7.28;;;;;;;4.99;100.00;100163.41;5032909;28;20495;-69
2020/12/18 06:05:22;;;;;;;9.90;5.53;;;;;;;4.83;100.00;100158.53;5032710;28;20674;-69
2020/12/18 06:07:50;;;;;;;11.68;5.15;;;;;;;5.02;100.00;100159.81;5032534;28;20193;-68
2020/12/18 06:10:19;;;;;;;17.45;6.10;;;;;;;4.94;100.00;100161.78;5032088;28;20711;-69
2020/12/18 06:12:46;;;;;;;11.38;6.57;;;;;;;4.96;100.00;100159.94;5032514;28;20215;-69
2020/12/18 06:15:15;;;;;;;10.38;5.57;;;;;;;5.03;100.00;100155.34;5030685;28;20256;-68
2020/12/18 06:17:44;;;;;;;8.80;5.43;;;;;;;4.96;100.00;100162.63;5031866;28;20185;-68
2020/12/18 06:20:14;;;;;;;7.65;4.88;;;;;;;4.69;100.00;100164.22;5032512;28;20205;-68
2020/12/18 06:22:55;;;;;;;10.07;6.30;;;;;;;4.88;100.00;100162.81;5032705;28;20513;-68
2020/12/18 06:25:21;;;;;;;13.68;7.15;;;;;;;4.70;100.00;100158.81;5032357;28;20208;-69
2020/12/18 06:27:56;;;;;;;10.93;6.72;;;;;;;4.79;100.00;100155.94;5032559;28;20211;-69
2020/12/18 06:30:22;;;;;;;12.55;5.95;;;;;;;4.88;100.00;100161.94;5032869;28;20190;-69
2020/12/18 06:32:48;;;;;;;12.95;7.03;;;;;;;4.93;100.00;100152.91;5032136;28;20572;-69
2020/12/18 06:35:32;;;;;;;11.90;6.85;;;;;;;4.89;100.00;100158.38;5032412;28;20602;-69
2020/12/18 06:38:26;;;;;;;8.05;6.72;;;;;;;4.88;100.00;100151.25;5031489;28;20285;-68
2020/12/18 06:40:53;;;;;;;10.13;5.40;;;;;;;4.96;100.00;100155.50;5031653;28;20640;-68
2020/12/18 06:43:35;;;;;;;11.73;6.20;;;;;;;4.88;100.00;100145.94;5031800;28;20559;-69
2020/12/18 06:46:05;;;;;;;10.48;5.05;;;;;;;4.92;100.00;100144.94;5032113;28;20660;-68
2020/12/18 06:48:31;;;;;;;10.45;5.95;;;;;;;4.79;100.00;100155.94;5032178;28;20192;-69
2020/12/18 06:50:57;;;;;;;11.00;5.57;;;;;;;4.83;100.00;100151.38;5031744;28;20320;-68
2020/12/18 06:53:23;;;;;;;12.43;6.88;;;;;;;4.88;100.00;100151.25;5031609;28;20186;-69
2020/12/18 06:55:50;;;;;;;15.70;7.88;;;;;;;4.96;100.00;100154.63;5031594;28;20280;-69
2020/12/18 06:58:18;;;;;;;13.93;6.53;;;;;;;5.15;100.00;100158.53;5031821;28;20198;-67
2020/12/18 07:00:47;;;;;;;13.73;7.28;;;;;;;5.07;100.00;100151.66;5031763;28;20269;-70
2020/12/18 07:03:36;;;;;;;11.57;6.43;;;;;;;5.09;100.00;100153.38;5031927;28;20293;-69
2020/12/18 07:06:04;;;;;;;10.65;6.00;;;;;;;5.19;100.00;100164.69;5031700;28;20369;-68
2020/12/18 07:08:31;;;;;;;11.82;6.72;;;;;;;5.14;100.00;100166.59;5031288;28;20277;-68
2020/12/18 07:11:02;;;;;;;9.65;6.10;;;;;;;5.12;100.00;100163.09;5031444;28;20655;-69
2020/12/18 07:13:31;;;;;;;10.35;5.70;;;;;;;5.15;100.00;100157.66;5031813;28;20188;-69
2020/12/18 07:16:08;;;;;;;14.68;5.95;;;;;;;4.94;100.00;100157.31;5031318;28;20185;-69
2020/12/18 07:18:37;;;;;;;12.38;5.90;;;;;;;4.81;100.00;100154.06;5031813;28;20594;-69
2020/12/18 07:21:04;;;;;;;9.05;5.40;;;;;;;4.78;100.00;100148.84;5031435;28;20204;-69
2020/12/18 07:23:32;;;;;;;8.45;5.70;;;;;;;4.60;100.00;100154.63;5031374;28;20192;-69
2020/12/18 07:26:00;;;;;;;12.90;6.60;;;;;;;4.64;100.00;100158.13;5031851;28;20457;-68
2020/12/18 07:28:28;;;;;;;10.55;6.00;;;;;;;4.60;100.00;100155.50;5031835;28;20231;-68
2020/12/18 07:30:55;;;;;;;9.85;6.70;;;;;;;4.79;100.00;100158.59;5031098;28;20298;-69
2020/12/18 07:33:23;;;;;;;17.63;7.72;;;;;;;4.62;100.00;100158.16;5031109;28;20292;-69
2020/12/18 07:35:51;;;;;;;7.82;6.55;;;;;;;4.66;100.00;100165.16;5031128;28;20216;-68
2020/12/18 07:38:19;;;;;;;6.47;4.70;;;;;;;4.74;100.00;100160.50;5031577;28;20295;-69
2020/12/18 07:40:48;;;;;;;10.55;6.60;;;;;;;4.79;100.00;100161.28;5031102;28;20195;-69
2020/12/18 07:43:16;;;;;;;9.52;5.72;;;;;;;4.87;100.00;100162.88;5030947;28;20215;-68
2020/12/18 07:45:44;;;;;;;9.07;6.05;;;;;;;4.88;100.00;100157.47;5027100;28;20193;-69
2020/12/18 07:48:13;;;;;;;12.27;6.13;;;;;;;4.97;100.00;100156.34;5030896;28;20194;-69
2020/12/18 07:50:39;;;;;;;10.73;5.93;;;;;;;5.01;100.00;100153.56;5031472;28;20609;-69
2020/12/18 07:53:07;;;;;;;11.88;6.65;;;;;;;5.08;100.00;100154.28;5031487;28;20296;-69
2020/12/18 07:55:33;;;;;;;12.68;5.45;;;;;;;4.98;100.00;100161.66;5031002;28;20187;-69
2020/12/18 07:58:00;;;;;;;15.95;7.50;;;;;;;5.01;100.00;100160.69;5031539;28;20208;-68
2020/12/18 08:00:27;;;;;;;12.18;8.00;;;;;;;5.06;100.00;100160.56;5030669;28;20591;-69
2020/12/18 08:02:53;;;;;;;8.70;5.00;;;;;;;5.03;100.00;100156.19;5033749;28;20283;-68
2020/12/18 08:05:20;;;;;;;11.23;5.60;;;;;;;5.26;100.00;100152.91;5050722;28;20225;-68
2020/12/18 08:07:47;;;;;;;13.95;6.30;;;;;;;5.25;100.00;100163.66;5041072;28;20203;-69
2020/12/18 08:10:14;;;;;;;11.02;5.85;;;;;;;5.29;100.00;100165.28;5031507;28;20190;-69
2020/12/18 08:12:40;;;;;;;8.00;5.20;;;;;;;5.12;100.00;100157.75;5030403;28;20260;-69
2020/12/18 08:15:08;;;;;;;9.25;6.07;;;;;;;4.96;100.00;100157.28;5031310;28;20204;-69
2020/12/18 08:17:35;;;;;;;6.80;5.13;;;;;;;4.96;100.00;100160.81;5034386;28;20222;-68
2020/12/18 08:20:03;;;;;;;10.23;6.45;;;;;;;4.84;100.00;100169.16;5034691;28;20703;-71
2020/12/18 08:22:35;;;;;;;8.50;5.22;;;;;;;4.82;100.00;100165.66;5034910;28;20612;-69
2020/12/18 08:25:03;;;;;;;10.40;4.63;;;;;;;4.92;100.00;100166.28;5034606;28;20213;-70
2020/12/18 08:27:36;;;;;;;15.93;5.25;;;;;;;5.06;100.00;100164.13;5034602;28;20189;-68
2020/12/18 08:30:05;;;;;;;9.75;5.22;;;;;;;5.19;100.00;100164.69;5034455;28;20217;-68
2020/12/18 08:32:32;;;;;;;9.73;5.53;;;;;;;5.32;100.00;100163.44;5033884;28;20703;-69
2020/12/18 08:35:01;;;;;;;10.25;6.05;;;;;;;5.53;99.14;100169.09;5034472;28;20195;-68
2020/12/18 08:37:27;;;;;;;9.73;5.10;;;;;;;5.59;97.76;100164.44;5034246;28;20186;-68
2020/12/18 08:39:54;;;;;;;9.93;6.22;;;;;;;5.44;97.26;100168.41;5033798;28;20209;-68
2020/12/18 08:42:21;;;;;;;8.60;5.32;;;;;;;5.42;97.43;100167.56;5033739;28;20625;-68
2020/12/18 08:44:47;;;;;;;10.55;5.13;;;;;;;5.36;98.07;100162.44;5033634;28;20201;-69
2020/12/18 08:47:18;;;;;;;8.57;4.45;;;;;;;5.52;96.28;100162.00;5033596;28;20198;-67
2020/12/18 08:49:45;;;;;;;3.72;3.20;;;;;;;5.37;96.18;100165.97;5034017;28;20186;-68
2020/12/18 08:52:13;;;;;;;5.35;3.17;;;;;;;5.45;96.04;100166.63;5033939;28;20272;-68
2020/12/18 08:54:39;;;;;;;6.40;3.72;;;;;;;5.35;96.85;100166.00;5033662;28;20198;-69
2020/12/18 08:57:14;;;;;;;7.35;4.53;;;;;;;5.51;95.79;100157.56;5033759;28;20208;-68
2020/12/18 08:59:55;;;;;;;4.25;3.25;;;;;;;5.62;95.37;100153.66;5033303;28;20260;-67
2020/12/18 09:02:21;;;;;;;5.57;3.30;;;;;;;5.50;95.91;100154.03;5034229;28;20559;-68
2020/12/18 09:04:47;;;;;;;4.47;2.83;;;;;;;5.35;96.24;100149.09;5032667;28;20222;-68
2020/12/18 09:07:14;;;;;;;5.97;3.58;;;;;;;5.44;96.12;100154.19;5033390;28;20687;-67
2020/12/18 09:09:53;;;;;;;7.32;3.28;;;;;;;5.33;96.24;100156.28;5033553;28;20233;-68
2020/12/18 09:12:19;;;;;;;9.13;4.07;;;;;;;5.43;97.07;100158.66;5033277;28;20603;-67
2020/12/18 09:14:45;;;;;;;6.65;4.20;;;;;;;5.41;96.39;100146.28;5033570;28;20182;-67
2020/12/18 09:17:11;;;;;;;4.35;3.33;;;;;;;5.46;95.83;100152.34;5033368;28;20290;-67
2020/12/18 09:19:45;;;;;;;8.50;3.80;;;;;;;5.67;94.91;100156.19;5033925;28;20636;-67
2020/12/18 09:22:11;;;;;;;6.88;3.47;;;;;;;5.70;93.47;100158.81;5033874;28;20189;-67
2020/12/18 09:24:38;;;;;;;4.80;2.90;;;;;;;5.70;93.44;100155.22;5034093;28;20230;-66
2020/12/18 09:27:09;;;;;;;4.35;3.38;;;;;;;5.58;94.29;100161.81;5033291;28;21071;-68
2020/12/18 09:29:35;;;;;;;8.05;4.10;;;;;;;5.64;95.05;100159.84;5033127;28;20195;-67
2020/12/18 09:32:02;;;;;;;4.03;3.63;;;;;;;5.74;95.02;100170.25;5033229;28;20320;-66
2020/12/18 09:34:30;;;;;;;6.38;3.53;;;;;;;5.75;94.42;100166.69;5033244;28;20225;-67
2020/12/18 09:36:56;;;;;;;6.22;3.53;;;;;;;5.90;93.94;100163.56;5032903;28;20755;-67
2020/12/18 09:39:22;;;;;;;10.70;4.40;;;;;;;6.24;92.08;100162.53;5033650;28;20594;-67
2020/12/18 09:41:49;;;;;;;6.72;3.78;;;;;;;5.90;92.48;100165.34;5032276;28;20186;-66
2020/12/18 09:44:15;;;;;;;4.65;3.75;;;;;;;5.76;93.57;100149.72;5033094;28;20552;-67
2020/12/18 09:46:42;;;;;;;4.60;2.80;;;;;;;5.48;95.91;100158.53;5032961;28;20703;-67
2020/12/18 09:49:08;;;;;;;9.52;4.18;;;;;;;5.68;96.51;100147.28;5033023;28;20256;-67
2020/12/18 09:51:35;;;;;;;5.55;4.10;;;;;;;5.61;96.27;100148.38;5033066;28;20395;-66
2020/12/18 09:54:01;;;;;;;5.07;3.75;;;;;;;5.43;97.53;100144.44;5033261;28;20379;-67
2020/12/18 09:56:27;;;;;;;6.28;3.75;;;;;;;5.50;96.93;100148.69;5033073;28;20281;-66
2020/12/18 09:58:54;;;;;;;4.75;3.70;;;;;;;5.70;97.42;100145.44;5032587;28;20269;-67
2020/12/18 10:01:23;;;;;;;4.95;4.38;;;;;;;5.94;96.38;100149.19;5032934;28;20182;-67
2020/12/18 10:03:49;;;;;;;8.07;4.55;;;;;;;6.12;94.81;100141.53;5033195;28;20186;-66
2020/12/18 10:06:16;;;;;;;5.90;4.18;;;;;;;6.29;93.53;100144.56;5032999;28;20237;-68
2020/12/18 10:08:42;;;;;;;6.07;4.05;;;;;;;6.13;93.34;100145.94;5032741;28;20606;-67
2020/12/18 10:11:08;;;;;;;5.20;4.00;;;;;;;6.32;93.15;100147.13;5032588;28;20190;-66
2020/12/18 10:13:34;;;;;;;4.38;2.70;;;;;;;6.25;93.41;100149.13;5032236;28;20276;-68
2020/12/18 10:16:01;;;;;;;6.78;3.90;;;;;;;6.31;93.78;100142.72;5032421;28;20335;-67
2020/12/18 10:18:27;;;;;;;5.22;4.10;;;;;;;6.35;93.15;100135.44;5032320;28;20308;-67
2020/12/18 10:20:54;;;;;;;7.25;3.40;;;;;;;6.34;92.52;100129.22;5032759;28;20680;-67
2020/12/18 10:23:20;;;;;;;5.93;4.65;;;;;;;6.32;93.30;100133.75;5032025;28;20209;-67
2020/12/18 10:25:46;;;;;;;4.18;3.55;;;;;;;6.39;93.32;100140.66;5032233;28;20509;-68
2020/12/18 10:28:12;;;;;;;6.20;3.85;;;;;;;6.38;93.31;100130.88;5032831;28;20601;-67
2020/12/18 10:30:38;;;;;;;5.93;3.85;;;;;;;6.16;93.84;100127.16;5032000;28;20289;-66
2020/12/18 10:33:05;;;;;;;5.90;3.45;;;;;;;5.99;94.29;100120.53;5031984;28;20300;-68
2020/12/18 10:35:32;;;;;;;10.60;5.10;;;;;;;6.29;95.33;100117.81;5032428;28;20269;-67
2020/12/18 10:38:00;;;;;;;7.65;5.20;;;;;;;6.42;93.42;100113.81;5030976;28;20353;-68
2020/12/18 10:40:27;;;;;;;8.10;5.03;;;;;;;6.59;92.97;100107.03;5031927;28;20605;-66
2020/12/18 10:42:53;;;;;;;8.23;4.70;;;;;;;6.50;93.09;100110.00;5031889;28;20629;-67
2020/12/18 10:45:19;;;;;;;6.88;4.55;;;;;;;6.34;93.78;100105.16;5032114;28;20301;-68
2020/12/18 10:47:45;;;;;;;7.05;4.30;;;;;;;6.54;93.44;100111.66;5032353;28;20224;-67
2020/12/18 10:50:12;;;;;;;6.18;4.30;;;;;;;6.65;92.84;100102.34;5032420;28;20652;-67
2020/12/18 10:52:38;;;;;;;6.70;3.75;;;;;;;6.76;92.30;100109.13;5032002;28;20676;-66
2020/12/18 10:55:05;;;;;;;9.25;4.47;;;;;;;6.94;91.78;100099.56;5031959;28;20198;-67
2020/12/18 10:57:31;;;;;;;7.78;4.18;;;;;;;7.12;90.67;100096.22;5031899;28;20289;-68
2020/12/18 10:59:57;;;;;;;7.40;4.10;;;;;;;7.29;89.42;100088.47;5031511;28;20457;-67
2020/12/18 11:02:23;;;;;;;6.13;4.90;;;;;;;7.33;88.77;100083.88;5031544;28;20213;-67
2020/12/18 11:04:50;;;;;;;8.00;4.78;;;;;;;7.19;89.46;100084.41;5031894;28;20610;-67
2020/12/18 11:07:17;;;;;;;7.30;5.20;;;;;;;7.11;90.36;100086.47;5031698;28;20206;-66
2020/12/18 11:09:43;;;;;;;8.70;4.40;;;;;;;7.04;90.35;100083.13;5031814;28;20241;-68
2020/12/18 11:12:10;;;;;;;9.27;4.95;;;;;;;7.13;90.96;100081.94;5031759;28;20540;-67
2020/12/18 11:14:38;;;;;;;7.10;4.55;;;;;;;6.88;91.83;100080.13;5031271;28;20600;-68
2020/12/18 11:17:04;;;;;;;6.70;3.95;;;;;;;7.33;91.57;100070.50;5031617;28;20213;-67
2020/12/18 11:19:30;;;;;;;8.90;6.40;;;;;;;7.50;89.35;100070.72;5031548;28;20301;-67
2020/12/18 11:21:56;;;;;;;8.05;5.10;;;;;;;7.41;89.74;100071.06;5031511;28;20202;-67